Time;durP1;ratioP1;P1;durP2;ratioP2;P2;SDS_P1;SDS_P2;PMS_P1;PMS_P2;Temp;Humidity;BMP_temperature;BMP_pressure;BME280_temperature;BME280_humidity;BME280_pressure;Samples;Min_cycle;Max_cycle;Signal;HPM_P1;HPM_P2
2023/03/11 00:00:29;;;;;;;;;;;25.30;81.50;;;;;;1783074;79;20624;-81
2023/03/11 00:03:11;;;;;;;;;;;25.30;81.40;;;;;;1776666;80;20183;-82
2023/03/11 00:05:42;;;;;;;;;;;25.30;82.00;;;;;;1811722;78;20183;-80
2023/03/11 00:08:13;;;;;;;;;;;25.30;80.90;;;;;;1790548;78;20202;-79
2023/03/11 00:10:44;;;;;;;;;;;25.30;80.90;;;;;;1801422;78;20584;-81
2023/03/11 00:13:15;;;;;;;;;;;25.30;80.70;;;;;;1799103;78;20298;-79
2023/03/11 00:15:58;;;;;;;;;;;25.30;80.80;;;;;;1797597;77;20190;-80
2023/03/11 00:18:25;;;;;;;;;;;25.30;80.30;;;;;;1792951;77;20176;-81
2023/03/11 00:20:56;;;;;;;;;;;25.30;80.30;;;;;;1780161;79;20222;-82
2023/03/11 00:23:26;;;;;;;;;;;25.30;80.90;;;;;;1764494;81;20222;-81
2023/03/11 00:25:58;;;;;;;;;;;25.30;80.40;;;;;;1789543;78;20240;-81
2023/03/11 00:28:27;;;;;;;;;;;25.30;80.50;;;;;;1758100;81;20424;-81
2023/03/11 00:30:58;;;;;;;;;;;25.30;80.50;;;;;;1774745;79;20199;-81
2023/03/11 00:33:28;;;;;;;;;;;25.40;80.00;;;;;;1768694;81;20207;-82
2023/03/11 00:35:58;;;;;;;;;;;25.40;80.00;;;;;;1761220;81;20179;-81
2023/03/11 00:38:28;;;;;;;;;;;25.40;79.60;;;;;;1769989;81;20234;-80
2023/03/11 00:41:00;;;;;;;;;;;25.40;79.50;;;;;;1770162;81;20203;-82
2023/03/11 00:43:29;;;;;;;;;;;25.40;79.30;;;;;;1768388;80;20179;-81
2023/03/11 00:45:59;;;;;;;;;;;25.40;78.70;;;;;;1769514;81;20202;-81
2023/03/11 00:48:29;;;;;;;;;;;25.50;78.40;;;;;;1769473;81;20246;-81
2023/03/11 00:50:59;;;;;;;;;;;25.50;79.00;;;;;;1760131;81;20198;-82
2023/03/11 00:53:29;;;;;;;;;;;25.50;78.90;;;;;;1768256;81;20243;-81
2023/03/11 00:56:00;;;;;;;;;;;25.50;78.50;;;;;;1755219;81;20238;-81
2023/03/11 00:58:32;;;;;;;;;;;25.60;78.90;;;;;;1767111;81;20242;-82
2023/03/11 01:01:01;;;;;;;;;;;25.60;78.30;;;;;;1767563;81;20211;-82
2023/03/11 01:03:31;;;;;;;;;;;25.60;77.80;;;;;;1776174;79;20769;-72
2023/03/11 01:06:01;;;;;;;;;;;25.60;78.10;;;;;;1776005;79;20179;-73
2023/03/11 01:08:31;;;;;;;;;;;25.60;78.10;;;;;;1771887;80;20317;-73
2023/03/11 01:11:01;;;;;;;;;;;25.70;77.90;;;;;;1774310;79;20220;-73
2023/03/11 01:13:31;;;;;;;;;;;25.70;77.70;;;;;;1771473;79;20195;-73
2023/03/11 01:16:01;;;;;;;;;;;25.70;77.90;;;;;;1772226;79;20318;-72
2023/03/11 01:18:31;;;;;;;;;;;25.70;77.80;;;;;;1766063;80;20235;-73
2023/03/11 01:21:01;;;;;;;;;;;25.70;78.40;;;;;;1759481;80;20792;-73
2023/03/11 01:23:31;;;;;;;;;;;25.70;78.30;;;;;;1755052;80;20210;-71
2023/03/11 01:26:03;;;;;;;;;;;25.70;77.50;;;;;;1717722;81;20197;-73
2023/03/11 01:28:33;;;;;;;;;;;25.80;77.50;;;;;;1720353;82;20256;-73
2023/03/11 01:31:03;;;;;;;;;;;25.80;77.60;;;;;;1693109;84;20247;-72
2023/03/11 01:33:33;;;;;;;;;;;25.80;77.40;;;;;;1695749;84;20295;-74
2023/03/11 01:36:05;;;;;;;;;;;25.90;77.70;;;;;;1719447;82;20281;-72
2023/03/11 01:38:35;;;;;;;;;;;25.90;77.40;;;;;;1717334;82;20680;-72
2023/03/11 01:41:06;;;;;;;;;;;25.90;77.00;;;;;;1711681;82;20484;-72
2023/03/11 01:43:40;;;;;;;;;;;26.00;77.00;;;;;;1715011;82;20323;-72
2023/03/11 01:46:14;;;;;;;;;;;26.00;77.20;;;;;;1714186;82;20326;-71
2023/03/11 01:48:51;;;;;;;;;;;26.10;77.30;;;;;;1714656;82;20869;-70
2023/03/11 01:51:26;;;;;;;;;;;26.20;76.90;;;;;;1768914;78;20233;-72
2023/03/11 01:53:56;;;;;;;;;;;26.30;76.90;;;;;;1788536;78;20563;-73
2023/03/11 01:56:28;;;;;;;;;;;26.30;76.70;;;;;;1792302;80;20177;-72
2023/03/11 01:58:59;;;;;;;;;;;26.40;76.70;;;;;;1792375;79;20220;-71
2023/03/11 02:01:29;;;;;;;;;;;26.40;76.10;;;;;;1786282;78;20216;-71
2023/03/11 02:03:59;;;;;;;;;;;26.50;76.70;;;;;;1793432;78;20170;-72
2023/03/11 02:06:32;;;;;;;;;;;26.60;76.60;;;;;;1791464;79;20267;-73
2023/03/11 02:09:05;;;;;;;;;;;26.60;76.50;;;;;;1790728;79;20256;-73
2023/03/11 02:11:35;;;;;;;;;;;26.60;76.10;;;;;;1789203;78;20185;-72
2023/03/11 02:14:06;;;;;;;;;;;26.70;76.00;;;;;;1786118;80;20222;-73
2023/03/11 02:16:36;;;;;;;;;;;26.70;75.90;;;;;;1787320;79;20193;-71
2023/03/11 02:19:10;;;;;;;;;;;26.70;75.80;;;;;;1787864;80;20208;-71
2023/03/11 02:21:40;;;;;;;;;;;26.80;75.50;;;;;;1789219;80;20366;-72
2023/03/11 02:24:11;;;;;;;;;;;26.90;75.30;;;;;;1791324;80;20311;-72
2023/03/11 02:26:42;;;;;;;;;;;26.90;75.30;;;;;;1790411;78;20186;-72
2023/03/11 02:29:13;;;;;;;;;;;26.90;75.10;;;;;;1781225;79;20337;-72
2023/03/11 02:31:43;;;;;;;;;;;26.90;75.00;;;;;;1798273;79;20379;-72
2023/03/11 02:34:23;;;;;;;;;;;27.00;75.10;;;;;;1799543;79;20220;-73
2023/03/11 02:36:53;;;;;;;;;;;27.10;74.80;;;;;;1797363;78;20169;-72
2023/03/11 02:39:36;;;;;;;;;;;27.20;74.70;;;;;;1796867;79;20223;-72
2023/03/11 02:42:07;;;;;;;;;;;27.30;74.50;;;;;;1795979;79;20225;-72
2023/03/11 02:44:40;;;;;;;;;;;27.30;74.10;;;;;;1796866;78;20192;-72
2023/03/11 02:47:10;;;;;;;;;;;27.40;73.80;;;;;;1795017;78;20358;-72
2023/03/11 02:49:40;;;;;;;;;;;27.50;73.80;;;;;;1802415;78;20232;-72
2023/03/11 02:52:11;;;;;;;;;;;27.60;73.80;;;;;;1802510;78;20252;-73
2023/03/11 02:54:45;;;;;;;;;;;27.70;73.60;;;;;;1806403;78;20245;-80
2023/03/11 02:57:15;;;;;;;;;;;27.80;73.40;;;;;;1801818;78;20212;-79
2023/03/11 02:59:45;;;;;;;;;;;27.90;73.00;;;;;;1803766;78;20184;-80
2023/03/11 03:02:14;;;;;;;;;;;28.00;72.90;;;;;;1798282;78;20672;-80
2023/03/11 03:04:44;;;;;;;;;;;28.00;72.60;;;;;;1800629;78;20567;-81
2023/03/11 03:07:14;;;;;;;;;;;28.10;71.80;;;;;;1804509;77;20739;-81
2023/03/11 03:09:45;;;;;;;;;;;28.10;72.00;;;;;;1795021;79;20202;-82
2023/03/11 03:12:15;;;;;;;;;;;28.20;72.20;;;;;;1798934;79;20199;-80
2023/03/11 03:14:45;;;;;;;;;;;28.20;72.00;;;;;;1810610;79;20235;-83
2023/03/11 03:17:14;;;;;;;;;;;28.30;71.70;;;;;;1804285;77;20606;-81
2023/03/11 03:19:44;;;;;;;;;;;28.40;71.60;;;;;;1803971;78;20399;-80
2023/03/11 03:22:15;;;;;;;;;;;28.50;71.40;;;;;;1811379;77;20138;-85
2023/03/11 03:24:47;;;;;;;;;;;28.60;71.30;;;;;;1809671;79;20133;-83
2023/03/11 03:27:17;;;;;;;;;;;28.70;71.10;;;;;;1783420;77;20178;-84
2023/03/11 03:29:47;;;;;;;;;;;28.70;70.30;;;;;;1775055;79;20235;-84
2023/03/11 03:32:17;;;;;;;;;;;28.90;70.90;;;;;;1771573;80;20187;-84
2023/03/11 03:34:47;;;;;;;;;;;29.00;70.30;;;;;;1772780;80;20227;-84
2023/03/11 03:37:17;;;;;;;;;;;29.10;69.90;;;;;;1819175;77;20183;-82
2023/03/11 03:39:47;;;;;;;;;;;29.10;69.90;;;;;;1796636;78;20512;-82
2023/03/11 03:42:17;;;;;;;;;;;29.20;69.10;;;;;;1792947;79;20215;-79
2023/03/11 03:44:49;;;;;;;;;;;29.30;68.70;;;;;;1811245;78;20186;-81
2023/03/11 03:47:19;;;;;;;;;;;29.30;67.60;;;;;;1798219;79;20256;-80
2023/03/11 03:49:49;;;;;;;;;;;29.40;67.90;;;;;;1811984;79;20209;-80
2023/03/11 03:52:22;;;;;;;;;;;29.50;68.10;;;;;;1811902;79;20501;-82
2023/03/11 03:54:50;;;;;;;;;;;29.60;67.40;;;;;;1815439;77;20319;-82
2023/03/11 03:57:20;;;;;;;;;;;29.60;67.10;;;;;;1813017;79;20213;-82
2023/03/11 03:59:50;;;;;;;;;;;29.70;67.40;;;;;;1813184;79;20229;-81
2023/03/11 04:02:20;;;;;;;;;;;29.80;66.40;;;;;;1812026;79;20214;-82
2023/03/11 04:04:50;;;;;;;;;;;29.90;66.70;;;;;;1812129;79;20221;-82
2023/03/11 04:07:19;;;;;;;;;;;30.00;66.40;;;;;;1812001;79;20603;-82
2023/03/11 04:09:49;;;;;;;;;;;30.10;67.40;;;;;;1813403;79;20236;-81
2023/03/11 04:12:20;;;;;;;;;;;30.20;66.90;;;;;;1803249;78;20278;-81
2023/03/11 04:14:50;;;;;;;;;;;30.20;66.20;;;;;;1821902;77;20218;-80
2023/03/11 04:17:19;;;;;;;;;;;30.30;64.60;;;;;;1812753;79;20238;-80
2023/03/11 04:19:49;;;;;;;;;;;30.40;64.50;;;;;;1815243;79;20201;-81
2023/03/11 04:22:19;;;;;;;;;;;30.40;65.10;;;;;;1812563;79;20199;-80
2023/03/11 04:24:49;;;;;;;;;;;30.40;64.60;;;;;;1811665;79;20501;-82
2023/03/11 04:27:19;;;;;;;;;;;30.50;65.00;;;;;;1838042;76;20715;-81
2023/03/11 04:29:49;;;;;;;;;;;30.50;65.60;;;;;;1865349;77;20643;-81
2023/03/11 04:32:18;;;;;;;;;;;;;;;;;;1843461;76;20176;-81
2023/03/11 04:34:49;;;;;;;;;;;30.70;64.50;;;;;;1838957;78;20236;-81
2023/03/11 04:37:19;;;;;;;;;;;30.80;66.10;;;;;;1851614;77;20229;-81
2023/03/11 04:39:52;;;;;;;;;;;30.90;65.40;;;;;;1850828;77;20197;-82
2023/03/11 04:42:21;;;;;;;;;;;31.00;65.20;;;;;;1863082;76;20448;-82
2023/03/11 04:44:51;;;;;;;;;;;31.00;64.80;;;;;;1862103;77;20478;-81
2023/03/11 04:47:21;;;;;;;;;;;31.00;63.50;;;;;;1827241;78;20504;-81
2023/03/11 04:49:50;;;;;;;;;;;31.00;63.70;;;;;;1839127;78;20241;-81
2023/03/11 04:52:23;;;;;;;;;;;31.00;64.50;;;;;;1826839;78;20237;-81
2023/03/11 04:54:53;;;;;;;;;;;31.10;65.00;;;;;;1853738;77;20622;-82
2023/03/11 04:57:23;;;;;;;;;;;31.20;63.40;;;;;;1850598;77;20208;-82
2023/03/11 04:59:52;;;;;;;;;;;;;;;;;;1838897;78;20172;-83
2023/03/11 05:02:22;;;;;;;;;;;31.30;61.90;;;;;;1853968;77;20224;-83
2023/03/11 05:04:52;;;;;;;;;;;31.40;62.50;;;;;;1864265;77;20229;-82
2023/03/11 05:07:23;;;;;;;;;;;31.40;60.90;;;;;;1865185;76;20218;-82
2023/03/11 05:09:52;;;;;;;;;;;31.50;60.00;;;;;;1863293;77;20192;-81
2023/03/11 05:12:22;;;;;;;;;;;31.50;59.30;;;;;;1866789;76;20214;-81
2023/03/11 05:14:53;;;;;;;;;;;31.60;61.10;;;;;;1857338;77;20216;-81
2023/03/11 05:17:23;;;;;;;;;;;31.70;60.00;;;;;;1865123;77;20192;-83
2023/03/11 05:19:53;;;;;;;;;;;31.70;61.00;;;;;;1854765;77;20200;-82
2023/03/11 05:22:23;;;;;;;;;;;31.80;61.70;;;;;;1857286;75;20182;-80
2023/03/11 05:24:53;;;;;;;;;;;31.80;60.50;;;;;;1839265;77;20172;-81
2023/03/11 05:27:22;;;;;;;;;;;31.80;60.80;;;;;;1858867;75;20200;-82
2023/03/11 05:29:52;;;;;;;;;;;31.90;61.20;;;;;;1838927;78;20181;-82
2023/03/11 05:32:22;;;;;;;;;;;31.80;60.80;;;;;;1838998;78;20621;-81
2023/03/11 05:34:52;;;;;;;;;;;31.90;60.50;;;;;;1840566;77;20187;-81
2023/03/11 05:37:22;;;;;;;;;;;31.90;59.60;;;;;;1848789;77;20328;-81
2023/03/11 05:39:52;;;;;;;;;;;32.00;60.90;;;;;;1810564;79;20256;-81
2023/03/11 05:42:22;;;;;;;;;;;32.10;60.30;;;;;;1805690;78;20244;-72
2023/03/11 05:44:57;;;;;;;;;;;32.00;59.50;;;;;;1796184;79;20177;-72
2023/03/11 05:47:29;;;;;;;;;;;32.00;59.10;;;;;;1799459;78;20210;-73
2023/03/11 05:49:59;;;;;;;;;;;32.10;59.10;;;;;;1813690;77;20194;-71
2023/03/11 05:52:31;;;;;;;;;;;32.10;56.80;;;;;;1769080;79;20246;-72
2023/03/11 05:55:00;;;;;;;;;;;32.10;58.30;;;;;;1794243;79;20727;-72
2023/03/11 05:57:31;;;;;;;;;;;32.10;56.30;;;;;;1802159;78;20286;-72
2023/03/11 06:00:03;;;;;;;;;;;32.10;59.10;;;;;;1808970;78;20185;-72
2023/03/11 06:02:35;;;;;;;;;;;32.10;59.40;;;;;;1811070;78;20229;-72
2023/03/11 06:05:06;;;;;;;;;;;32.20;58.80;;;;;;1809939;77;20734;-72
2023/03/11 06:07:37;;;;;;;;;;;32.10;56.20;;;;;;1805214;79;20475;-72
2023/03/11 06:10:07;;;;;;;;;;;32.20;57.20;;;;;;1801772;80;20205;-71
2023/03/11 06:12:40;;;;;;;;;;;32.20;56.10;;;;;;1807827;79;20501;-71
2023/03/11 06:15:10;;;;;;;;;;;32.20;57.80;;;;;;1823852;78;20504;-72
2023/03/11 06:17:40;;;;;;;;;;;32.20;58.50;;;;;;1820069;78;20198;-72
2023/03/11 06:20:11;;;;;;;;;;;32.30;59.00;;;;;;1779780;80;20251;-73
2023/03/11 06:22:41;;;;;;;;;;;32.30;58.90;;;;;;1819156;78;20241;-73
2023/03/11 06:25:11;;;;;;;;;;;32.30;58.60;;;;;;1815604;78;20190;-72
2023/03/11 06:27:43;;;;;;;;;;;32.30;57.20;;;;;;1808547;77;20293;-71
2023/03/11 06:30:13;;;;;;;;;;;32.30;57.90;;;;;;1805788;77;20225;-73
2023/03/11 06:32:46;;;;;;;;;;;32.40;58.20;;;;;;1773077;79;20518;-72
2023/03/11 06:35:16;;;;;;;;;;;32.40;55.10;;;;;;1799932;78;20188;-73
2023/03/11 06:37:46;;;;;;;;;;;32.40;55.90;;;;;;1836593;75;20230;-73
2023/03/11 06:40:17;;;;;;;;;;;32.40;55.90;;;;;;1851494;76;20222;-73
2023/03/11 06:42:47;;;;;;;;;;;32.40;55.60;;;;;;1858176;76;20184;-73
2023/03/11 06:45:17;;;;;;;;;;;32.40;55.90;;;;;;1857240;77;20167;-73
2023/03/11 06:47:48;;;;;;;;;;;32.50;55.60;;;;;;1842509;76;20196;-72
2023/03/11 06:50:18;;;;;;;;;;;32.50;55.10;;;;;;1859962;75;20547;-73
2023/03/11 06:52:48;;;;;;;;;;;32.60;56.00;;;;;;1849884;76;20299;-73
2023/03/11 06:55:19;;;;;;;;;;;32.60;55.00;;;;;;1851524;76;20151;-71
2023/03/11 06:57:49;;;;;;;;;;;;;;;;;;1853041;75;20164;-72
2023/03/11 07:00:22;;;;;;;;;;;32.60;54.60;;;;;;1854873;76;20176;-72
2023/03/11 07:02:52;;;;;;;;;;;32.60;56.90;;;;;;1850316;77;20290;-72
2023/03/11 07:05:23;;;;;;;;;;;32.50;57.00;;;;;;1853479;76;20200;-72
2023/03/11 07:07:55;;;;;;;;;;;32.60;55.80;;;;;;1856332;76;20269;-73
2023/03/11 07:10:25;;;;;;;;;;;32.60;54.50;;;;;;1851353;75;20208;-72
2023/03/11 07:12:55;;;;;;;;;;;32.50;55.60;;;;;;1847132;76;20278;-73
2023/03/11 07:15:25;;;;;;;;;;;32.50;53.60;;;;;;1853201;77;20201;-72
2023/03/11 07:17:57;;;;;;;;;;;32.50;54.30;;;;;;1849996;77;20247;-72
2023/03/11 07:20:27;;;;;;;;;;;32.60;53.50;;;;;;1839524;77;20189;-72
2023/03/11 07:22:57;;;;;;;;;;;32.60;54.10;;;;;;1844942;76;20193;-73
2023/03/11 07:25:28;;;;;;;;;;;32.70;54.60;;;;;;1854323;77;20401;-72
2023/03/11 07:28:00;;;;;;;;;;;32.70;55.00;;;;;;1851558;75;20261;-73
2023/03/11 07:30:43;;;;;;;;;;;32.70;54.10;;;;;;1811093;77;20250;-73
2023/03/11 07:33:14;;;;;;;;;;;32.70;55.40;;;;;;1815444;77;20248;-73
2023/03/11 07:39:02;;;;;;;;;;;32.60;54.70;;;;;;1814130;76;20199;-72
2023/03/11 07:41:33;;;;;;;;;;;32.60;55.10;;;;;;1797101;78;20190;-73
2023/03/11 07:44:03;;;;;;;;;;;32.60;55.60;;;;;;1802971;77;20184;-73
2023/03/11 07:46:33;;;;;;;;;;;32.60;55.80;;;;;;1786609;78;20186;-75
2023/03/11 07:49:04;;;;;;;;;;;32.60;55.60;;;;;;1803664;78;20171;-75
2023/03/11 07:51:37;;;;;;;;;;;32.50;54.40;;;;;;1809050;77;20257;-74
2023/03/11 07:54:08;;;;;;;;;;;32.50;55.40;;;;;;1812584;76;20188;-73
2023/03/11 07:56:46;;;;;;;;;;;32.50;54.80;;;;;;1808399;77;20259;-74
2023/03/11 07:59:16;;;;;;;;;;;32.50;55.50;;;;;;1799251;78;20587;-73
2023/03/11 08:01:49;;;;;;;;;;;32.50;54.90;;;;;;1802722;77;20196;-73
2023/03/11 08:04:22;;;;;;;;;;;32.50;55.50;;;;;;1820156;77;20258;-74
2023/03/11 08:06:52;;;;;;;;;;;32.50;55.40;;;;;;1797599;77;20233;-74
2023/03/11 08:09:22;;;;;;;;;;;32.50;55.80;;;;;;1814986;77;20242;-85
2023/03/11 08:11:53;;;;;;;;;;;32.40;56.60;;;;;;1780294;80;20131;-85
2023/03/11 08:14:30;;;;;;;;;;;32.40;55.50;;;;;;1834958;78;20135;-83
2023/03/11 08:16:56;;;;;;;;;;;32.40;56.20;;;;;;1772593;79;20445;-81
2023/03/11 08:19:26;;;;;;;;;;;32.40;55.90;;;;;;1822524;77;20158;-82
2023/03/11 08:21:56;;;;;;;;;;;32.40;56.50;;;;;;1831985;78;20165;-82
2023/03/11 08:27:39;;;;;;;;;;;32.40;55.30;;;;;;1815344;77;20154;-83
2023/03/11 08:30:09;;;;;;;;;;;32.40;56.20;;;;;;1832435;77;20255;-80
2023/03/11 08:32:39;;;;;;;;;;;32.40;55.20;;;;;;1836422;77;20262;-82
2023/03/11 08:35:12;;;;;;;;;;;32.50;56.70;;;;;;1796268;79;20178;-81
2023/03/11 08:38:06;;;;;;;;;;;32.50;56.00;;;;;;1791202;80;20156;-83
2023/03/11 08:40:32;;;;;;;;;;;32.50;55.00;;;;;;1797909;80;20186;-83
2023/03/11 08:43:11;;;;;;;;;;;32.40;56.20;;;;;;1727480;81;20123;-84
2023/03/11 08:45:44;;;;;;;;;;;32.40;56.00;;;;;;1758888;80;20173;-84
2023/03/11 08:48:26;;;;;;;;;;;32.30;55.90;;;;;;1755138;80;20315;-84
2023/03/11 08:50:55;;;;;;;;;;;32.30;56.30;;;;;;1778264;80;20130;-84
2023/03/11 08:53:44;;;;;;;;;;;32.30;55.50;;;;;;1755581;80;20164;-83
2023/03/11 08:56:15;;;;;;;;;;;32.30;56.80;;;;;;1683371;82;20142;-85
2023/03/11 08:59:04;;;;;;;;;;;32.30;56.20;;;;;;1764341;77;20449;-83
2023/03/11 09:01:37;;;;;;;;;;;32.30;56.00;;;;;;1786896;79;20138;-85
2023/03/11 09:04:14;;;;;;;;;;;32.30;56.40;;;;;;1778697;79;20188;-84
2023/03/11 09:06:44;;;;;;;;;;;32.30;56.30;;;;;;1775601;79;20234;-84
2023/03/11 09:09:20;;;;;;;;;;;32.30;56.60;;;;;;1775737;79;20674;-84
2023/03/11 09:11:56;;;;;;;;;;;32.30;56.70;;;;;;1777450;80;20253;-84
2023/03/11 09:14:26;;;;;;;;;;;32.30;57.10;;;;;;1760903;80;20258;-85
2023/03/11 09:17:01;;;;;;;;;;;32.20;57.10;;;;;;1752012;80;20755;-84
2023/03/11 09:19:27;;;;;;;;;;;32.20;56.90;;;;;;1761151;79;20339;-82
2023/03/11 09:22:04;;;;;;;;;;;32.20;57.00;;;;;;1753833;80;20215;-84
2023/03/11 09:24:48;;;;;;;;;;;32.10;57.60;;;;;;1755216;80;20198;-85
2023/03/11 09:27:31;;;;;;;;;;;32.10;57.20;;;;;;1806841;79;20431;-85
2023/03/11 09:30:07;;;;;;;;;;;32.10;57.20;;;;;;1783396;79;20195;-86
2023/03/11 09:33:16;;;;;;;;;;;32.10;56.70;;;;;;1746496;80;20130;-85
2023/03/11 09:35:46;;;;;;;;;;;32.00;56.40;;;;;;1754379;80;20172;-85
2023/03/11 09:41:38;;;;;;;;;;;32.00;57.00;;;;;;1752963;81;20397;-86
2023/03/11 09:44:12;;;;;;;;;;;32.00;56.80;;;;;;1751152;80;20206;-85
2023/03/11 09:47:04;;;;;;;;;;;31.90;57.50;;;;;;1772752;79;20175;-85
2023/03/11 09:49:56;;;;;;;;;;;31.90;56.60;;;;;;1756356;79;20187;-85
2023/03/11 09:52:34;;;;;;;;;;;32.00;56.90;;;;;;1780478;79;20315;-83
2023/03/11 09:55:05;;;;;;;;;;;31.90;56.40;;;;;;1758392;79;20220;-85
2023/03/11 09:57:37;;;;;;;;;;;31.90;57.40;;;;;;1778184;79;20247;-84
2023/03/11 10:00:29;;;;;;;;;;;31.90;57.10;;;;;;1779811;79;20173;-82
2023/03/11 10:03:00;;;;;;;;;;;31.90;56.90;;;;;;1787709;79;20185;-84
2023/03/11 10:05:30;;;;;;;;;;;31.90;56.70;;;;;;1751724;82;20175;-83
2023/03/11 10:08:10;;;;;;;;;;;31.80;56.70;;;;;;1752780;82;20126;-83
2023/03/11 10:10:38;;;;;;;;;;;31.80;57.30;;;;;;1745305;80;20130;-84
2023/03/11 10:13:12;;;;;;;;;;;31.80;57.10;;;;;;1796939;79;20548;-85
2023/03/11 10:16:00;;;;;;;;;;;31.80;57.90;;;;;;1751768;80;20187;-82
2023/03/11 10:18:31;;;;;;;;;;;31.80;57.90;;;;;;1800454;79;20310;-80
2023/03/11 10:21:02;;;;;;;;;;;31.70;57.50;;;;;;1796782;79;20221;-84
2023/03/11 10:23:39;;;;;;;;;;;31.80;58.00;;;;;;1745920;80;20191;-83
2023/03/11 10:26:10;;;;;;;;;;;31.70;57.70;;;;;;1761039;80;20220;-83
2023/03/11 10:28:43;;;;;;;;;;;31.70;57.50;;;;;;1753492;80;20194;-84
2023/03/11 10:31:21;;;;;;;;;;;31.70;57.50;;;;;;1780739;79;20194;-84
2023/03/11 10:33:52;;;;;;;;;;;31.60;57.60;;;;;;1763296;80;20208;-84
2023/03/11 10:36:25;;;;;;;;;;;31.60;57.90;;;;;;1758605;80;20204;-84
2023/03/11 10:38:55;;;;;;;;;;;31.60;58.00;;;;;;1758918;80;20256;-84
2023/03/11 10:41:36;;;;;;;;;;;31.60;58.20;;;;;;1754973;80;20455;-84
2023/03/11 10:44:18;;;;;;;;;;;31.50;58.10;;;;;;1765800;80;20449;-84
2023/03/11 10:47:23;;;;;;;;;;;31.40;58.20;;;;;;1753400;80;20125;-83
2023/03/11 10:49:53;;;;;;;;;;;31.40;58.40;;;;;;1747909;80;20265;-83
2023/03/11 10:52:27;;;;;;;;;;;31.30;58.70;;;;;;1775244;80;20100;-84
2023/03/11 10:54:58;;;;;;;;;;;31.30;58.90;;;;;;1798106;79;20124;-84
2023/03/11 10:57:34;;;;;;;;;;;31.20;58.90;;;;;;1795744;80;20176;-82
2023/03/11 11:00:16;;;;;;;;;;;31.20;59.10;;;;;;1743594;80;20175;-83
2023/03/11 11:02:43;;;;;;;;;;;31.10;59.10;;;;;;1761166;79;20177;-85
2023/03/11 11:05:20;;;;;;;;;;;31.10;59.30;;;;;;1748451;80;20621;-81
2023/03/11 11:11:01;;;;;;;;;;;31.10;59.50;;;;;;1835414;74;20190;-83
2023/03/11 11:13:33;;;;;;;;;;;31.10;59.70;;;;;;1880710;74;20204;-83
2023/03/11 11:16:04;;;;;;;;;;;31.00;59.70;;;;;;1875809;75;20424;-83
2023/03/11 11:18:52;;;;;;;;;;;31.00;59.80;;;;;;1874749;77;20129;-82
2023/03/11 11:21:43;;;;;;;;;;;31.00;59.90;;;;;;1884560;75;20502;-82
2023/03/11 11:24:26;;;;;;;;;;;31.00;60.00;;;;;;1879786;76;20385;-83
2023/03/11 11:27:06;;;;;;;;;;;30.90;60.00;;;;;;1891903;75;20188;-83
2023/03/11 11:29:36;;;;;;;;;;;30.90;60.20;;;;;;1887631;75;20148;-85
2023/03/11 11:32:18;;;;;;;;;;;30.80;60.20;;;;;;1891022;75;20235;-84
2023/03/11 11:38:03;;;;;;;;;;;30.80;60.40;;;;;;1888907;75;20168;-83
2023/03/11 11:40:33;;;;;;;;;;;30.80;60.80;;;;;;1882788;75;20752;-82
2023/03/11 11:43:07;;;;;;;;;;;30.70;61.10;;;;;;1878564;75;20249;-83
2023/03/11 11:45:38;;;;;;;;;;;30.70;61.80;;;;;;1877717;75;20471;-84
2023/03/11 11:48:24;;;;;;;;;;;30.70;62.30;;;;;;1880646;75;20395;-83
2023/03/11 11:50:55;;;;;;;;;;;30.70;62.30;;;;;;1889649;74;20502;-83
2023/03/11 11:53:32;;;;;;;;;;;30.60;62.50;;;;;;1881538;75;20180;-84
2023/03/11 11:56:03;;;;;;;;;;;30.60;62.50;;;;;;1895143;75;20119;-84
2023/03/11 11:58:36;;;;;;;;;;;30.50;62.30;;;;;;1879560;75;20352;-84
2023/03/11 12:01:10;;;;;;;;;;;30.50;62.30;;;;;;1896510;75;20580;-83
2023/03/11 12:03:44;;;;;;;;;;;30.50;62.30;;;;;;1878619;75;20500;-85
2023/03/11 12:06:15;;;;;;;;;;;30.50;62.00;;;;;;1884002;75;20196;-84
2023/03/11 12:09:13;;;;;;;;;;;30.50;61.90;;;;;;1876018;75;20212;-82
2023/03/11 12:11:53;;;;;;;;;;;30.50;61.80;;;;;;1891348;73;20107;-84
2023/03/11 12:14:28;;;;;;;;;;;30.50;61.80;;;;;;1871828;75;20180;-85
2023/03/11 12:16:59;;;;;;;;;;;30.50;61.80;;;;;;1841847;75;20243;-83
2023/03/11 12:19:37;;;;;;;;;;;30.40;61.60;;;;;;1870894;75;20124;-83
2023/03/11 12:25:47;;;;;;;;;;;30.50;61.30;;;;;;1872674;74;20180;-85
2023/03/11 12:28:35;;;;;;;;;;;30.50;61.30;;;;;;1889207;75;20238;-85
2023/03/11 12:31:06;;;;;;;;;;;30.40;61.30;;;;;;1883036;75;20218;-83
2023/03/11 12:36:59;;;;;;;;;;;30.40;61.20;;;;;;1876451;75;20169;-83
2023/03/11 12:39:35;;;;;;;;;;;30.40;61.20;;;;;;1881753;75;20306;-82
2023/03/11 12:42:13;;;;;;;;;;;30.40;61.30;;;;;;1853000;76;20121;-83
2023/03/11 12:44:43;;;;;;;;;;;30.40;60.90;;;;;;1875024;75;20451;-85
2023/03/11 12:53:47;;;;;;;;;;;30.30;61.60;;;;;;1880417;75;20202;-83
2023/03/11 12:56:38;;;;;;;;;;;30.30;62.00;;;;;;1876921;75;20517;-83
2023/03/11 12:59:13;;;;;;;;;;;30.20;62.10;;;;;;1869351;76;20221;-85
2023/03/11 13:01:53;;;;;;;;;;;30.20;62.30;;;;;;1863457;76;20464;-86
2023/03/11 13:04:27;;;;;;;;;;;30.20;62.20;;;;;;1883886;75;20209;-85
2023/03/11 13:07:04;;;;;;;;;;;30.20;62.30;;;;;;1890453;75;20165;-87
2023/03/11 13:12:50;;;;;;;;;;;30.10;62.50;;;;;;1895470;74;20125;-87
2023/03/11 13:15:22;;;;;;;;;;;30.10;63.00;;;;;;1875097;76;20125;-88
2023/03/11 13:17:59;;;;;;;;;;;30.10;63.00;;;;;;1901794;74;20126;-86
2023/03/11 13:20:48;;;;;;;;;;;30.00;63.20;;;;;;1894951;74;20173;-87
2023/03/11 13:23:23;;;;;;;;;;;30.00;62.90;;;;;;1902915;75;20300;-87
2023/03/11 13:26:04;;;;;;;;;;;30.00;63.30;;;;;;1851161;76;20248;-86
2023/03/11 13:28:35;;;;;;;;;;;29.90;63.20;;;;;;1869498;76;20216;-87
2023/03/11 13:31:19;;;;;;;;;;;29.90;63.00;;;;;;1821650;78;20502;-86
2023/03/11 13:33:59;;;;;;;;;;;29.90;63.40;;;;;;1863164;76;20220;-85
2023/03/11 13:36:30;;;;;;;;;;;29.90;63.60;;;;;;1832053;78;20183;-85
2023/03/11 13:39:18;;;;;;;;;;;29.90;63.60;;;;;;1836411;78;20161;-87
2023/03/11 13:44:46;;;;;;;;;;;29.90;63.30;;;;;;1836556;77;20198;-86
2023/03/11 13:47:19;;;;;;;;;;;29.80;63.40;;;;;;1821926;78;20167;-85
2023/03/11 13:50:10;;;;;;;;;;;29.80;63.70;;;;;;1837872;76;20557;-85
2023/03/11 13:56:17;;;;;;;;;;;29.80;64.00;;;;;;1839656;78;20124;-85
2023/03/11 13:58:34;;;;;;;;;;;29.80;64.20;;;;;;1799797;78;20181;-85
2023/03/11 14:01:04;;;;;;;;;;;29.80;64.30;;;;;;1822827;77;20541;-85
2023/03/11 14:03:35;;;;;;;;;;;29.70;64.20;;;;;;1851529;76;20134;-86
2023/03/11 14:06:08;;;;;;;;;;;29.70;65.50;;;;;;1818367;78;20136;-85
2023/03/11 14:08:42;;;;;;;;;;;29.70;64.20;;;;;;1831458;78;20158;-84
2023/03/11 14:11:19;;;;;;;;;;;29.70;64.20;;;;;;1826413;78;20240;-87
2023/03/11 14:13:51;;;;;;;;;;;29.60;64.30;;;;;;1819881;78;20127;-85
2023/03/11 14:16:33;;;;;;;;;;;29.60;64.60;;;;;;1837801;78;20131;-84
2023/03/11 14:19:17;;;;;;;;;;;29.60;64.40;;;;;;1809484;79;20134;-82
2023/03/11 14:21:49;;;;;;;;;;;29.60;64.50;;;;;;1838846;76;20286;-84
2023/03/11 14:24:26;;;;;;;;;;;29.50;64.70;;;;;;1845661;76;20172;-84
2023/03/11 14:27:00;;;;;;;;;;;29.50;64.80;;;;;;1863053;76;20430;-85
2023/03/11 14:29:39;;;;;;;;;;;29.50;64.80;;;;;;1879395;75;20151;-84
2023/03/11 14:32:28;;;;;;;;;;;29.40;64.60;;;;;;1881314;75;20204;-87
2023/03/11 14:35:02;;;;;;;;;;;29.50;64.60;;;;;;1863022;76;20153;-86
2023/03/11 14:37:51;;;;;;;;;;;29.50;64.90;;;;;;1872025;77;20160;-82
2023/03/11 14:40:26;;;;;;;;;;;29.40;64.80;;;;;;1846337;77;20172;-85
2023/03/11 14:43:02;;;;;;;;;;;29.40;64.80;;;;;;1889823;75;20111;-86
2023/03/11 14:45:39;;;;;;;;;;;29.40;65.20;;;;;;1831341;76;20168;-85
2023/03/11 14:48:45;;;;;;;;;;;29.40;64.90;;;;;;1885810;76;20156;-85
2023/03/11 14:51:23;;;;;;;;;;;29.40;64.80;;;;;;1880761;75;20124;-85
2023/03/11 14:54:10;;;;;;;;;;;29.40;64.90;;;;;;1874328;76;20388;-85
2023/03/11 14:56:52;;;;;;;;;;;29.40;64.80;;;;;;1880984;75;20212;-85
2023/03/11 14:59:17;;;;;;;;;;;29.40;64.70;;;;;;1864001;75;20171;-85
2023/03/11 15:01:46;;;;;;;;;;;29.30;64.80;;;;;;1887789;75;20205;-84
2023/03/11 15:04:26;;;;;;;;;;;29.30;64.90;;;;;;1896749;75;20127;-84
2023/03/11 15:06:56;;;;;;;;;;;29.30;64.80;;;;;;1885950;75;20216;-82
2023/03/11 15:09:27;;;;;;;;;;;29.30;65.00;;;;;;1872483;75;20164;-83
2023/03/11 15:11:58;;;;;;;;;;;29.20;65.00;;;;;;1892590;75;20213;-84
2023/03/11 15:14:30;;;;;;;;;;;29.20;65.10;;;;;;1905048;75;20126;-84
2023/03/11 15:17:10;;;;;;;;;;;29.20;65.20;;;;;;1889023;75;20355;-81
2023/03/11 15:19:45;;;;;;;;;;;29.20;65.20;;;;;;1878139;75;20151;-82
2023/03/11 15:22:19;;;;;;;;;;;29.20;65.00;;;;;;1876958;75;20182;-84
2023/03/11 15:24:53;;;;;;;;;;;29.20;65.40;;;;;;1897621;75;20119;-87
2023/03/11 15:27:46;;;;;;;;;;;29.10;65.30;;;;;;1915949;74;20192;-86
2023/03/11 15:30:24;;;;;;;;;;;29.10;65.20;;;;;;1873773;77;20129;-87
2023/03/11 15:32:55;;;;;;;;;;;29.10;65.50;;;;;;1803953;79;20128;-85